Burlington City, New Jersey
Current Conditions -  °F | °C
As of 6:54 PM on Friday 19 Dec 2014 (Local Time) from KVAY Reporting Station
Clear Clear  
Wind Chill: 25°   Ceiling: Unl
Heat Index: 33°   Visibility: 10mi
Dew Point: 21°   Wind: 9mph
Humidity: 61%   Direction: 350°N
Pressure: 30.17"   Gusts: 18mph
Location:  40.0691°N, 74.8276°W
Report Text: KVAY 192354Z AUTO 35008G16KT 10SM CLR 01/M06 A3017 RMK AO2 SLP216 T00061061 10050 20000 51031
Loading
Personal Weather Stations






























Interactive Weather Map New forecast layout! Learn more

10-Day Weather Forecast

Advertisements
Track Severe Weather on mobile